createdAt,value
2022-07-27T00:00:47.891Z,2.50
2022-07-27T00:03:14.701Z,2.70
2022-07-27T00:05:41.699Z,2.50
2022-07-27T00:08:08.468Z,3.08
2022-07-27T00:10:38.266Z,2.42
2022-07-27T00:13:06.226Z,2.83
2022-07-27T00:15:34.432Z,2.03
2022-07-27T00:18:01.241Z,2.60
2022-07-27T00:20:28.906Z,2.83
2022-07-27T00:22:55.950Z,2.80
2022-07-27T00:25:23.507Z,3.20
2022-07-27T00:27:50.731Z,3.35
2022-07-27T00:30:17.407Z,2.45
2022-07-27T00:32:44.141Z,2.50
2022-07-27T00:35:11.685Z,2.50
2022-07-27T00:37:40.124Z,3.03
2022-07-27T00:40:08.190Z,2.20
2022-07-27T00:42:35.435Z,2.60
2022-07-27T00:45:02.822Z,2.88
2022-07-27T00:47:29.469Z,2.75
2022-07-27T00:49:57.372Z,3.05
2022-07-27T00:52:24.685Z,2.42
2022-07-27T00:54:52.766Z,2.80
2022-07-27T00:57:19.587Z,2.92
2022-07-27T00:59:46.277Z,2.70
2022-07-27T01:02:13.001Z,2.45
2022-07-27T01:04:46.708Z,2.78
2022-07-27T01:07:14.494Z,2.83
2022-07-27T01:09:59.802Z,3.85
2022-07-27T01:12:29.519Z,3.00
2022-07-27T01:14:58.089Z,2.88
2022-07-27T01:17:26.386Z,2.63
2022-07-27T01:19:53.667Z,2.80
2022-07-27T01:22:20.350Z,2.55
2022-07-27T01:24:48.479Z,2.40
2022-07-27T01:27:15.200Z,2.95
2022-07-27T01:29:42.063Z,2.35
2022-07-27T01:32:08.885Z,2.58
2022-07-27T01:34:35.914Z,2.33
2022-07-27T01:37:03.793Z,2.22
2022-07-27T01:39:30.824Z,2.80
2022-07-27T01:41:58.177Z,2.47
2022-07-27T01:44:24.967Z,3.05
2022-07-27T01:46:51.870Z,2.55
2022-07-27T01:49:18.887Z,2.20
2022-07-27T01:51:45.520Z,3.20
2022-07-27T01:54:12.557Z,3.92
2022-07-27T01:56:39.112Z,4.45
2022-07-27T01:59:05.792Z,2.65
2022-07-27T02:01:32.526Z,3.03
2022-07-27T02:03:59.210Z,2.60
2022-07-27T02:06:26.062Z,3.47
2022-07-27T02:08:52.653Z,2.33
2022-07-27T02:11:37.992Z,2.85
2022-07-27T02:14:04.620Z,3.70
2022-07-27T02:16:31.341Z,3.28
2022-07-27T02:18:58.172Z,2.75
2022-07-27T02:21:25.006Z,2.78
2022-07-27T02:23:51.755Z,3.22
2022-07-27T02:26:18.369Z,2.70
2022-07-27T02:28:45.046Z,2.97
2022-07-27T02:31:11.622Z,2.90
2022-07-27T02:33:38.220Z,2.80
2022-07-27T02:36:05.164Z,2.88
2022-07-27T02:38:31.775Z,3.35
2022-07-27T02:40:58.434Z,3.10
2022-07-27T02:43:25.033Z,2.78
2022-07-27T02:45:52.160Z,3.15
2022-07-27T02:48:18.830Z,3.05
2022-07-27T02:50:45.491Z,3.20
2022-07-27T02:53:12.062Z,2.47
2022-07-27T02:55:38.743Z,2.97
2022-07-27T02:58:05.328Z,3.10
2022-07-27T03:00:32.030Z,2.90
2022-07-27T03:02:58.601Z,2.88
2022-07-27T03:05:25.266Z,2.88
2022-07-27T03:07:51.870Z,2.40
2022-07-27T03:10:18.527Z,2.63
2022-07-27T03:12:45.221Z,2.53
2022-07-27T03:15:11.840Z,3.35
2022-07-27T03:17:38.507Z,4.38
2022-07-27T03:20:05.943Z,2.92
2022-07-27T03:22:35.570Z,2.55
2022-07-27T03:25:02.286Z,2.75
2022-07-27T03:27:29.328Z,2.70
2022-07-27T03:29:56.654Z,3.17
2022-07-27T03:32:23.335Z,3.05
2022-07-27T03:34:50.324Z,2.83
2022-07-27T03:37:19.021Z,2.45
2022-07-27T03:39:46.275Z,2.85
2022-07-27T03:42:13.232Z,2.97
2022-07-27T03:44:40.079Z,2.80
2022-07-27T03:47:06.885Z,2.85
2022-07-27T03:49:33.723Z,2.58
2022-07-27T03:52:00.503Z,3.10
2022-07-27T03:54:27.544Z,2.47
2022-07-27T03:56:54.276Z,2.33
2022-07-27T03:59:20.994Z,2.90
2022-07-27T04:01:47.860Z,2.50
2022-07-27T04:04:14.575Z,2.47
2022-07-27T04:06:41.177Z,3.00
2022-07-27T04:09:08.465Z,3.70
2022-07-27T04:11:37.763Z,3.22
2022-07-27T04:14:12.806Z,3.00
2022-07-27T04:16:39.986Z,2.88
2022-07-27T04:19:06.896Z,2.65
2022-07-27T04:21:35.345Z,3.05
2022-07-27T04:24:02.601Z,3.17
2022-07-27T04:26:29.565Z,3.15
2022-07-27T04:28:56.255Z,2.95
2022-07-27T04:31:23.590Z,2.90
2022-07-27T04:33:50.723Z,3.08
2022-07-27T04:36:17.421Z,3.17
2022-07-27T04:38:44.049Z,2.70
2022-07-27T04:41:10.872Z,2.83
2022-07-27T04:43:37.596Z,2.88
2022-07-27T04:46:04.820Z,3.17
2022-07-27T04:48:35.668Z,3.05
2022-07-27T04:51:02.467Z,3.40
2022-07-27T04:53:29.167Z,3.25
2022-07-27T04:55:55.876Z,3.80
2022-07-27T04:58:22.773Z,4.07
2022-07-27T05:00:49.551Z,2.92
2022-07-27T05:03:16.294Z,2.90
2022-07-27T05:05:49.922Z,3.53
2022-07-27T05:08:17.508Z,3.40
2022-07-27T05:10:44.315Z,3.88
2022-07-27T05:13:11.217Z,2.78
2022-07-27T05:15:54.991Z,3.05
2022-07-27T05:18:22.374Z,3.22
2022-07-27T05:20:50.357Z,3.42
2022-07-27T05:23:18.034Z,3.00
2022-07-27T05:25:44.601Z,3.15
2022-07-27T05:28:12.656Z,3.38
2022-07-27T05:30:39.290Z,2.70
2022-07-27T05:33:05.947Z,3.55
2022-07-27T05:35:32.614Z,3.75
2022-07-27T05:37:59.462Z,3.90
2022-07-27T05:40:26.587Z,3.63
2022-07-27T05:42:53.372Z,2.90
2022-07-27T05:45:20.133Z,3.22
2022-07-27T05:47:46.780Z,3.55
2022-07-27T05:50:14.374Z,3.08
2022-07-27T05:52:41.134Z,2.85
2022-07-27T05:55:08.209Z,3.17
2022-07-27T05:57:35.242Z,3.15
2022-07-27T06:00:02.088Z,2.92
2022-07-27T06:02:39.262Z,2.65
2022-07-27T06:05:07.659Z,3.72
2022-07-27T06:07:54.645Z,2.60
2022-07-27T06:10:21.556Z,2.60
2022-07-27T06:12:48.256Z,3.67
2022-07-27T06:15:17.025Z,2.50
2022-07-27T06:17:44.163Z,2.53
2022-07-27T06:20:11.035Z,3.90
2022-07-27T06:22:50.618Z,2.33
2022-07-27T06:25:18.325Z,3.15
2022-07-27T06:27:45.397Z,3.10
2022-07-27T06:30:14.323Z,2.97
2022-07-27T06:32:41.248Z,2.97
2022-07-27T06:35:11.529Z,2.58
2022-07-27T06:37:44.132Z,3.15
2022-07-27T06:40:13.373Z,3.75
2022-07-27T06:42:41.619Z,3.28
2022-07-27T06:45:09.123Z,3.28
2022-07-27T06:47:36.109Z,2.28
2022-07-27T06:50:16.223Z,3.20
2022-07-27T06:52:42.883Z,2.35
2022-07-27T06:55:09.723Z,3.33
2022-07-27T06:57:36.314Z,2.70
2022-07-27T07:00:03.741Z,2.47
2022-07-27T07:02:30.407Z,2.92
2022-07-27T07:04:56.998Z,2.70
2022-07-27T07:07:23.662Z,2.55
2022-07-27T07:09:50.265Z,2.53
2022-07-27T07:12:18.350Z,3.50
2022-07-27T07:14:45.735Z,2.47
2022-07-27T07:17:12.352Z,2.42
2022-07-27T07:19:39.082Z,2.53
2022-07-27T07:22:05.679Z,2.95
2022-07-27T07:24:32.285Z,2.83
2022-07-27T07:26:58.926Z,2.33
2022-07-27T07:29:25.528Z,3.40
2022-07-27T07:31:52.237Z,2.60
2022-07-27T07:34:18.857Z,2.40
2022-07-27T07:36:47.870Z,2.35
2022-07-27T07:39:15.151Z,2.78
2022-07-27T07:41:42.076Z,2.50
2022-07-27T07:44:10.167Z,2.05
2022-07-27T07:46:37.144Z,2.97
2022-07-27T07:49:04.984Z,2.30
2022-07-27T07:51:32.272Z,2.22
2022-07-27T07:53:59.285Z,2.33
2022-07-27T07:56:26.019Z,2.30
2022-07-27T07:58:52.661Z,3.30
2022-07-27T08:01:19.353Z,2.13
2022-07-27T08:03:50.576Z,2.42
2022-07-27T08:06:17.650Z,1.90
2022-07-27T08:08:44.244Z,1.83
2022-07-27T08:11:10.886Z,1.60
2022-07-27T08:13:37.512Z,2.80
2022-07-27T08:16:04.558Z,2.08
2022-07-27T08:18:31.274Z,1.92
2022-07-27T08:20:58.067Z,2.15
2022-07-27T08:23:24.849Z,1.90
2022-07-27T08:25:51.426Z,2.40
2022-07-27T08:28:18.131Z,1.77
2022-07-27T08:30:45.395Z,2.65
2022-07-27T08:33:12.650Z,1.77
2022-07-27T08:35:39.244Z,1.70
2022-07-27T08:38:07.461Z,2.15
2022-07-27T08:40:44.176Z,2.20
2022-07-27T08:43:18.906Z,1.63
2022-07-27T08:45:58.599Z,2.60
2022-07-27T08:48:28.670Z,2.22
2022-07-27T08:50:55.968Z,1.60
2022-07-27T08:53:23.731Z,1.73
2022-07-27T08:55:50.871Z,1.50
2022-07-27T08:58:17.902Z,1.70
2022-07-27T09:00:48.162Z,2.40
2022-07-27T09:03:21.369Z,2.03
2022-07-27T09:05:53.516Z,2.10
2022-07-27T09:08:26.286Z,1.85
2022-07-27T09:10:55.522Z,1.70
2022-07-27T09:13:27.513Z,1.83
2022-07-27T09:16:17.493Z,1.75
2022-07-27T09:18:45.470Z,2.22
2022-07-27T09:21:22.095Z,1.73
2022-07-27T09:23:57.288Z,1.83
2022-07-27T09:26:33.617Z,1.90
2022-07-27T09:29:05.476Z,2.00
2022-07-27T09:31:33.362Z,1.70
2022-07-27T09:34:02.881Z,1.42
2022-07-27T09:36:31.055Z,1.63
2022-07-27T09:39:05.654Z,1.80
2022-07-27T09:41:47.630Z,1.83
2022-07-27T09:44:32.747Z,1.50
2022-07-27T09:47:01.330Z,1.80
2022-07-27T09:49:28.294Z,1.27
2022-07-27T09:51:59.924Z,1.65
2022-07-27T09:54:27.435Z,1.70
2022-07-27T09:57:02.172Z,1.30
2022-07-27T09:59:30.093Z,1.35
2022-07-27T10:01:57.166Z,1.30
2022-07-27T10:04:24.938Z,1.77
2022-07-27T10:07:02.948Z,1.75
2022-07-27T10:09:31.511Z,1.75
2022-07-27T10:11:58.510Z,1.20
2022-07-27T10:14:25.801Z,1.73
2022-07-27T10:16:53.692Z,1.40
2022-07-27T10:19:31.725Z,1.30
2022-07-27T10:21:58.296Z,1.50
2022-07-27T10:24:26.909Z,1.85
2022-07-27T10:26:53.698Z,1.08
2022-07-27T10:29:21.897Z,1.42
2022-07-27T10:31:54.709Z,1.90
2022-07-27T10:34:36.584Z,1.58
2022-07-27T10:37:23.618Z,1.38
2022-07-27T10:40:12.596Z,1.40
2022-07-27T10:42:39.838Z,1.30
2022-07-27T10:45:12.423Z,1.35
2022-07-27T10:47:43.112Z,1.05
2022-07-27T10:50:15.763Z,1.30
2022-07-27T10:52:42.568Z,2.10
2022-07-27T10:55:32.603Z,1.40
2022-07-27T10:58:11.003Z,1.52
2022-07-27T11:00:58.979Z,1.10
2022-07-27T11:03:42.719Z,1.15
2022-07-27T11:09:52.529Z,1.15
2022-07-27T11:11:52.281Z,1.00
2022-07-27T11:14:30.317Z,1.05
2022-07-27T11:17:17.247Z,1.40
2022-07-27T11:19:52.619Z,1.05
2022-07-27T11:23:09.097Z,1.02
2022-07-27T11:25:19.286Z,1.08
2022-07-27T11:27:49.951Z,1.30
2022-07-27T11:30:27.866Z,1.40
2022-07-27T11:32:55.881Z,1.23
2022-07-27T11:35:22.826Z,1.60
2022-07-27T11:38:05.081Z,1.45
2022-07-27T11:43:45.425Z,1.38
2022-07-27T11:46:17.154Z,1.40
2022-07-27T11:49:09.218Z,1.13
2022-07-27T11:51:44.622Z,1.08
2022-07-27T11:54:17.996Z,1.70
2022-07-27T11:56:49.458Z,1.45
2022-07-27T11:59:19.205Z,1.48
2022-07-27T12:01:50.831Z,1.33
2022-07-27T12:04:19.001Z,1.35
2022-07-27T12:06:49.668Z,1.10
2022-07-27T12:09:17.602Z,1.00
2022-07-27T12:11:53.622Z,1.30
2022-07-27T12:14:35.291Z,1.30
2022-07-27T12:17:12.621Z,1.30
2022-07-27T12:19:40.373Z,0.93
2022-07-27T12:22:07.491Z,1.50
2022-07-27T12:24:40.800Z,1.00
2022-07-27T12:27:14.430Z,1.08
2022-07-27T12:30:01.783Z,1.20
2022-07-27T12:32:30.394Z,0.80
2022-07-27T12:34:57.511Z,0.77
2022-07-27T12:37:29.908Z,0.82
2022-07-27T12:39:56.617Z,1.30
2022-07-27T12:42:33.572Z,0.80
2022-07-27T12:45:11.247Z,1.10
2022-07-27T12:47:40.657Z,1.02
2022-07-27T12:50:26.584Z,0.82
2022-07-27T12:52:54.080Z,1.00
2022-07-27T12:55:22.844Z,0.82
2022-07-27T12:57:57.977Z,0.90
2022-07-27T13:00:33.586Z,1.13
2022-07-27T13:03:02.076Z,0.98
2022-07-27T13:05:29.017Z,0.80
2022-07-27T13:07:55.746Z,0.90
2022-07-27T13:10:22.666Z,0.63
2022-07-27T13:12:50.299Z,0.63
2022-07-27T13:15:18.189Z,1.00
2022-07-27T13:17:46.371Z,1.05
2022-07-27T13:20:14.473Z,1.02
2022-07-27T13:22:41.999Z,1.10
2022-07-27T13:25:15.394Z,1.10
2022-07-27T13:27:43.965Z,0.90
2022-07-27T13:30:11.446Z,0.55
2022-07-27T13:32:39.329Z,0.70
2022-07-27T13:35:07.671Z,0.82
2022-07-27T13:37:34.575Z,0.88
2022-07-27T13:40:01.166Z,1.05
2022-07-27T13:42:27.799Z,1.20
2022-07-27T13:45:10.354Z,1.00
2022-07-27T13:47:38.527Z,0.65
2022-07-27T13:50:05.949Z,0.90
2022-07-27T13:52:32.683Z,0.70
2022-07-27T13:54:59.368Z,0.85
2022-07-27T13:57:26.042Z,0.80
2022-07-27T13:59:53.170Z,0.95
2022-07-27T14:02:23.161Z,0.98
2022-07-27T14:04:51.858Z,1.30
2022-07-27T14:07:18.586Z,0.88
2022-07-27T14:10:04.095Z,0.90
2022-07-27T14:12:30.687Z,0.93
2022-07-27T14:14:57.430Z,0.90
2022-07-27T14:17:24.199Z,1.08
2022-07-27T14:19:50.777Z,0.90
2022-07-27T14:22:17.377Z,1.35
2022-07-27T14:24:44.191Z,1.77
2022-07-27T14:27:10.841Z,1.10
2022-07-27T14:29:37.436Z,0.80
2022-07-27T14:32:04.351Z,1.75
2022-07-27T14:34:31.222Z,1.10
2022-07-27T14:36:57.937Z,1.13
2022-07-27T14:39:24.713Z,1.77
2022-07-27T14:41:51.388Z,1.02
2022-07-27T14:44:18.926Z,1.13
2022-07-27T14:46:46.567Z,0.80
2022-07-27T14:49:17.253Z,0.98
2022-07-27T14:51:44.050Z,1.00
2022-07-27T14:54:10.730Z,1.10
2022-07-27T14:56:37.539Z,1.25
2022-07-27T14:59:04.712Z,0.98
2022-07-27T15:01:31.902Z,1.60
2022-07-27T15:03:58.870Z,1.23
2022-07-27T15:06:25.640Z,1.50
2022-07-27T15:08:52.619Z,1.48
2022-07-27T15:11:19.343Z,1.00
2022-07-27T15:13:46.002Z,0.93
2022-07-27T15:16:12.879Z,1.20
2022-07-27T15:18:39.698Z,1.52
2022-07-27T15:21:12.698Z,1.20
2022-07-27T15:23:43.896Z,1.63
2022-07-27T15:26:12.612Z,1.15
2022-07-27T15:28:39.995Z,1.60
2022-07-27T15:31:06.699Z,1.50
2022-07-27T15:33:33.321Z,1.10
2022-07-27T15:36:00.020Z,1.10
2022-07-27T15:38:26.799Z,1.42
2022-07-27T15:40:53.484Z,0.98
2022-07-27T15:43:20.066Z,1.50
2022-07-27T15:45:50.721Z,1.85
2022-07-27T15:48:19.634Z,0.73
2022-07-27T15:50:49.854Z,1.00
2022-07-27T15:53:20.959Z,1.42
2022-07-27T15:55:49.167Z,1.13
2022-07-27T15:58:19.633Z,0.85
2022-07-27T16:00:48.756Z,0.90
2022-07-27T16:03:16.455Z,1.02
2022-07-27T16:05:44.477Z,0.80
2022-07-27T16:08:11.496Z,1.15
2022-07-27T16:10:39.199Z,1.42
2022-07-27T16:13:07.139Z,1.30
2022-07-27T16:15:52.768Z,0.75
2022-07-27T16:18:19.484Z,1.63
2022-07-27T16:20:46.586Z,0.95
2022-07-27T16:23:17.834Z,1.05
2022-07-27T16:26:04.452Z,0.93
2022-07-27T16:28:33.783Z,1.00
2022-07-27T16:31:00.525Z,0.90
2022-07-27T16:33:27.155Z,1.55
2022-07-27T16:35:53.772Z,1.10
2022-07-27T16:38:20.356Z,1.15
2022-07-27T16:40:46.933Z,1.15
2022-07-27T16:43:13.554Z,1.30
2022-07-27T16:45:40.188Z,1.00
2022-07-27T16:48:06.942Z,1.10
2022-07-27T16:50:33.765Z,1.15
2022-07-27T16:53:01.446Z,1.13
2022-07-27T16:55:28.369Z,1.02
2022-07-27T16:57:55.937Z,1.10
2022-07-27T17:00:23.041Z,1.20
2022-07-27T17:02:49.920Z,1.40
2022-07-27T17:05:16.612Z,1.33
2022-07-27T17:07:43.452Z,1.08
2022-07-27T17:10:10.176Z,1.17
2022-07-27T17:12:38.872Z,0.90
2022-07-27T17:15:07.168Z,1.10
2022-07-27T17:17:34.090Z,1.10
2022-07-27T17:20:00.733Z,1.33
2022-07-27T17:22:27.601Z,1.00
2022-07-27T17:24:54.207Z,1.17
2022-07-27T17:27:21.976Z,1.30
2022-07-27T17:29:48.982Z,1.00
2022-07-27T17:32:15.644Z,1.15
2022-07-27T17:34:43.484Z,1.02
2022-07-27T17:37:10.118Z,1.45
2022-07-27T17:39:36.849Z,1.60
2022-07-27T17:42:04.389Z,1.33
2022-07-27T17:44:32.334Z,1.00
2022-07-27T17:47:00.919Z,1.20
2022-07-27T17:49:28.099Z,1.23
2022-07-27T17:51:54.724Z,1.10
2022-07-27T17:54:22.877Z,1.00
2022-07-27T17:56:49.558Z,1.10
2022-07-27T18:02:05.023Z,1.63
2022-07-27T18:04:37.043Z,1.85
2022-07-27T18:07:05.668Z,1.70
2022-07-27T18:09:32.320Z,1.00
2022-07-27T18:11:58.984Z,1.08
2022-07-27T18:14:25.626Z,1.10
2022-07-27T18:16:52.348Z,0.98
2022-07-27T18:19:19.049Z,1.13
2022-07-27T18:21:45.613Z,1.15
2022-07-27T18:24:12.253Z,1.30
2022-07-27T18:26:38.961Z,1.10
2022-07-27T18:29:05.926Z,1.23
2022-07-27T18:31:33.256Z,0.93
2022-07-27T18:34:01.591Z,1.15
2022-07-27T18:36:28.726Z,0.98
2022-07-27T18:38:57.809Z,0.98
2022-07-27T18:41:24.992Z,0.90
2022-07-27T18:43:51.738Z,1.10
2022-07-27T18:46:22.815Z,1.38
2022-07-27T18:48:49.970Z,0.90
2022-07-27T18:51:17.257Z,1.10
2022-07-27T18:53:44.426Z,1.17
2022-07-27T18:56:11.112Z,1.10
2022-07-27T18:58:37.985Z,1.20
2022-07-27T19:01:04.679Z,1.13
2022-07-27T19:03:31.504Z,1.92
2022-07-27T19:05:59.129Z,1.30
2022-07-27T19:08:25.726Z,1.10
2022-07-27T19:10:52.452Z,1.30
2022-07-27T19:13:19.208Z,1.48
2022-07-27T19:15:45.894Z,1.23
2022-07-27T19:18:12.579Z,1.33
2022-07-27T19:20:39.215Z,0.93
2022-07-27T19:23:07.116Z,1.02
2022-07-27T19:25:34.274Z,0.88
2022-07-27T19:28:01.716Z,0.90
2022-07-27T19:30:28.432Z,1.00
2022-07-27T19:32:55.065Z,1.08
2022-07-27T19:35:21.673Z,1.58
2022-07-27T19:37:48.325Z,1.65
2022-07-27T19:40:42.985Z,1.80
2022-07-27T19:43:06.769Z,1.25
2022-07-27T19:45:33.397Z,1.30
2022-07-27T19:48:01.637Z,2.00
2022-07-27T19:50:28.288Z,1.63
2022-07-27T19:52:54.986Z,1.90
2022-07-27T19:55:21.570Z,1.38
2022-07-27T19:57:48.247Z,1.95
2022-07-27T20:00:15.350Z,1.77
2022-07-27T20:02:42.083Z,1.45
2022-07-27T20:05:09.171Z,1.48
2022-07-27T20:07:35.810Z,1.48
2022-07-27T20:10:02.449Z,2.20
2022-07-27T20:12:29.073Z,1.95
2022-07-27T20:14:55.701Z,2.03
2022-07-27T20:17:22.317Z,1.80
2022-07-27T20:19:48.915Z,2.05
2022-07-27T20:22:15.572Z,1.80
2022-07-27T20:24:42.227Z,2.10
2022-07-27T20:27:08.829Z,1.92
2022-07-27T20:29:35.381Z,2.20
2022-07-27T20:32:02.149Z,2.15
2022-07-27T20:34:28.831Z,2.08
2022-07-27T20:36:56.198Z,1.48
2022-07-27T20:39:25.316Z,2.10
2022-07-27T20:41:52.286Z,1.40
2022-07-27T20:44:20.905Z,1.85
2022-07-27T20:46:47.779Z,1.65
2022-07-27T20:49:14.749Z,1.98
2022-07-27T20:51:42.180Z,1.45
2022-07-27T20:54:08.813Z,1.75
2022-07-27T20:56:35.452Z,2.00
2022-07-27T20:59:02.327Z,1.70
2022-07-27T21:01:34.217Z,1.30
2022-07-27T21:04:01.078Z,1.20
2022-07-27T21:06:27.672Z,1.70
2022-07-27T21:08:54.274Z,1.38
2022-07-27T21:11:20.851Z,1.30
2022-07-27T21:13:47.735Z,1.60
2022-07-27T21:16:14.479Z,1.42
2022-07-27T21:18:41.156Z,2.20
2022-07-27T21:21:07.848Z,1.33
2022-07-27T21:23:53.074Z,1.83
2022-07-27T21:26:19.682Z,1.45
2022-07-27T21:28:47.960Z,1.30
2022-07-27T21:31:14.610Z,1.30
2022-07-27T21:33:41.367Z,1.40
2022-07-27T21:36:08.055Z,1.85
2022-07-27T21:38:34.704Z,0.90
2022-07-27T21:41:01.306Z,1.02
2022-07-27T21:43:27.881Z,1.77
2022-07-27T21:45:54.514Z,1.98
2022-07-27T21:48:21.173Z,1.20
2022-07-27T21:50:47.812Z,1.55
2022-07-27T21:53:14.414Z,1.60
2022-07-27T21:55:41.146Z,1.35
2022-07-27T21:58:10.045Z,1.40
2022-07-27T22:00:37.386Z,1.70
2022-07-27T22:03:04.437Z,1.60
2022-07-27T22:05:31.176Z,1.48
2022-07-27T22:08:00.117Z,1.40
2022-07-27T22:10:28.876Z,1.50
2022-07-27T22:12:58.378Z,1.58
2022-07-27T22:15:25.831Z,1.70
2022-07-27T22:17:52.463Z,1.38
2022-07-27T22:20:21.046Z,1.88
2022-07-27T22:22:48.820Z,1.35
2022-07-27T22:25:15.874Z,1.63
2022-07-27T22:27:42.580Z,1.60
2022-07-27T22:30:09.371Z,1.33
2022-07-27T22:32:36.155Z,1.48
2022-07-27T22:35:03.681Z,1.38
2022-07-27T22:37:30.265Z,1.88
2022-07-27T22:39:56.901Z,1.20
2022-07-27T22:42:23.512Z,1.30
2022-07-27T22:44:50.144Z,1.58
2022-07-27T22:47:16.785Z,1.88
2022-07-27T22:49:43.483Z,1.92
2022-07-27T22:52:10.061Z,1.40
2022-07-27T22:54:38.059Z,1.65
2022-07-27T22:57:05.911Z,1.55
2022-07-27T22:59:32.954Z,1.40
2022-07-27T23:01:59.630Z,1.73
2022-07-27T23:04:26.344Z,1.60
2022-07-27T23:06:52.920Z,2.13
2022-07-27T23:09:19.503Z,1.98
2022-07-27T23:11:46.225Z,1.48
2022-07-27T23:14:13.435Z,1.33
2022-07-27T23:16:40.810Z,1.13
2022-07-27T23:19:08.335Z,1.30
2022-07-27T23:21:35.056Z,1.38
2022-07-27T23:24:04.875Z,1.30
2022-07-27T23:26:31.706Z,1.58
2022-07-27T23:28:58.416Z,1.50
2022-07-27T23:31:26.151Z,1.85
2022-07-27T23:33:52.970Z,1.50
2022-07-27T23:36:19.998Z,1.35
2022-07-27T23:38:46.595Z,1.65
2022-07-27T23:41:13.478Z,1.40
2022-07-27T23:43:40.129Z,1.67
2022-07-27T23:46:06.890Z,1.88
2022-07-27T23:48:33.684Z,1.52
2022-07-27T23:51:00.341Z,1.77
2022-07-27T23:53:28.451Z,1.60
2022-07-27T23:55:55.073Z,1.75
2022-07-27T23:58:21.841Z,1.98
